createdAt,value
2023-01-13T00:01:10.102Z,16.98
2023-01-13T00:04:13.144Z,14.43
2023-01-13T00:07:15.806Z,13.82
2023-01-13T00:10:19.808Z,12.57
2023-01-13T00:13:26.739Z,11.70
2023-01-13T00:16:29.973Z,19.02
2023-01-13T00:19:32.681Z,16.27
2023-01-13T00:22:36.255Z,11.98
2023-01-13T00:25:38.938Z,13.73
2023-01-13T00:28:42.195Z,16.05
2023-01-13T00:31:44.826Z,15.15
2023-01-13T00:34:47.801Z,16.95
2023-01-13T00:37:50.497Z,14.93
2023-01-13T00:41:02.573Z,12.25
2023-01-13T00:44:05.512Z,15.07
2023-01-13T00:47:08.473Z,11.52
2023-01-13T00:50:11.285Z,9.60
2023-01-13T00:53:14.888Z,11.07
2023-01-13T00:56:30.520Z,13.68
2023-01-13T00:59:41.716Z,12.63
2023-01-13T01:02:44.661Z,12.65
2023-01-13T01:05:48.283Z,14.43
2023-01-13T01:08:52.158Z,10.80
2023-01-13T01:11:55.749Z,16.30
2023-01-13T01:14:58.485Z,12.80
2023-01-13T01:18:01.459Z,13.77
2023-01-13T01:21:05.866Z,11.85
2023-01-13T01:24:09.849Z,11.90
2023-01-13T01:27:12.514Z,9.52
2023-01-13T01:30:15.696Z,8.85
2023-01-13T01:33:18.342Z,10.35
2023-01-13T01:36:23.352Z,13.05
2023-01-13T01:39:26.096Z,8.93
2023-01-13T01:42:47.433Z,10.60
2023-01-13T01:45:52.625Z,10.15
2023-01-13T01:49:12.714Z,11.07
2023-01-13T01:52:21.307Z,8.07
2023-01-13T01:55:29.722Z,11.75
2023-01-13T01:58:45.477Z,10.05
2023-01-13T02:01:48.769Z,10.38
2023-01-13T02:04:54.992Z,12.05
2023-01-13T02:07:59.662Z,10.73
2023-01-13T02:11:02.631Z,10.25
2023-01-13T02:14:05.350Z,12.13
2023-01-13T02:17:40.318Z,10.02
2023-01-13T02:20:55.559Z,11.73
2023-01-13T02:24:55.354Z,11.85
2023-01-13T02:28:17.893Z,11.37
2023-01-13T02:31:39.993Z,11.93
2023-01-13T02:34:53.508Z,12.35
2023-01-13T02:37:58.725Z,14.63
2023-01-13T02:41:26.251Z,15.23
2023-01-13T02:44:36.386Z,10.13
2023-01-13T02:47:42.382Z,10.80
2023-01-13T02:50:53.720Z,11.70
2023-01-13T02:54:13.853Z,12.82
2023-01-13T03:00:22.125Z,10.25
2023-01-13T03:03:25.169Z,9.52
2023-01-13T03:06:46.225Z,13.55
2023-01-13T03:10:06.424Z,12.57
2023-01-13T03:13:36.534Z,12.57
2023-01-13T03:20:26.371Z,9.55
2023-01-13T03:23:49.039Z,10.65
2023-01-13T03:27:11.919Z,13.48
2023-01-13T03:30:29.450Z,7.57
2023-01-13T03:33:38.275Z,9.57
2023-01-13T03:36:44.296Z,8.52
2023-01-13T03:40:00.570Z,12.85
2023-01-13T03:43:28.063Z,12.55
2023-01-13T03:46:40.291Z,10.32
2023-01-13T03:49:48.702Z,10.98
2023-01-13T03:53:18.944Z,9.10
2023-01-13T03:56:29.217Z,8.25
2023-01-13T03:59:36.113Z,7.60
2023-01-13T04:03:14.226Z,7.28
2023-01-13T04:06:25.515Z,8.13
2023-01-13T04:09:31.560Z,8.63
2023-01-13T04:13:03.223Z,11.35
2023-01-13T04:16:11.549Z,11.63
2023-01-13T04:19:14.839Z,10.18
2023-01-13T04:22:17.528Z,7.43
2023-01-13T04:25:20.480Z,7.57
2023-01-13T04:28:24.128Z,6.20
2023-01-13T04:31:27.272Z,8.18
2023-01-13T04:34:30.039Z,8.23
2023-01-13T04:37:33.587Z,7.43
2023-01-13T04:40:36.898Z,9.25
2023-01-13T04:43:39.884Z,9.18
2023-01-13T04:46:42.668Z,8.68
2023-01-13T04:49:45.694Z,8.63
2023-01-13T04:52:49.520Z,10.70
2023-01-13T04:55:52.513Z,10.57
2023-01-13T04:58:55.458Z,6.62
2023-01-13T05:01:58.802Z,10.23
2023-01-13T05:05:01.591Z,8.32
2023-01-13T05:08:05.588Z,8.45
2023-01-13T05:11:28.705Z,8.13
2023-01-13T05:14:51.293Z,10.45
2023-01-13T05:17:54.548Z,7.50
2023-01-13T05:20:58.020Z,7.95
2023-01-13T05:24:19.326Z,10.07
2023-01-13T05:27:22.357Z,7.90
2023-01-13T05:30:28.509Z,7.95
2023-01-13T05:33:31.524Z,7.53
2023-01-13T05:36:34.392Z,8.15
2023-01-13T05:39:56.717Z,7.65
2023-01-13T05:43:20.113Z,8.10
2023-01-13T05:46:23.953Z,11.65
2023-01-13T05:49:26.767Z,10.45
2023-01-13T05:52:29.852Z,10.52
2023-01-13T05:55:32.604Z,9.48
2023-01-13T05:58:35.755Z,11.85
2023-01-13T06:01:38.459Z,13.57
2023-01-13T06:04:41.557Z,9.40
2023-01-13T06:07:44.251Z,9.95
2023-01-13T06:10:47.513Z,12.48
2023-01-13T06:13:50.171Z,8.57
2023-01-13T06:16:53.072Z,8.88
2023-01-13T06:19:55.707Z,7.55
2023-01-13T06:22:59.461Z,9.77
2023-01-13T06:26:39.133Z,15.07
2023-01-13T06:29:42.303Z,30.42
2023-01-13T06:32:49.866Z,18.55
2023-01-13T06:36:00.574Z,14.35
2023-01-13T06:42:26.065Z,13.38
2023-01-13T06:45:31.528Z,12.73
2023-01-13T06:48:35.605Z,11.85
2023-01-13T06:51:38.456Z,12.15
2023-01-13T06:54:41.431Z,16.80
2023-01-13T06:57:48.448Z,11.60
2023-01-13T07:00:51.867Z,9.60
2023-01-13T07:03:54.789Z,11.40
2023-01-13T07:06:58.187Z,9.23
2023-01-13T07:10:01.071Z,9.60
2023-01-13T07:13:24.432Z,10.70
2023-01-13T07:16:28.238Z,8.38
2023-01-13T07:19:31.474Z,10.63
2023-01-13T07:22:34.490Z,9.65
2023-01-13T07:25:37.704Z,14.90
2023-01-13T07:28:41.146Z,9.23
2023-01-13T07:31:44.481Z,11.45
2023-01-13T07:34:48.773Z,13.20
2023-01-13T07:37:51.767Z,11.57
2023-01-13T07:40:54.950Z,19.17
2023-01-13T07:43:58.611Z,13.25
2023-01-13T07:47:01.352Z,10.70
2023-01-13T07:50:04.932Z,8.63
2023-01-13T07:53:09.150Z,9.85
2023-01-13T07:56:12.564Z,11.68
2023-01-13T07:59:16.272Z,9.40
2023-01-13T08:02:19.594Z,9.68
2023-01-13T08:05:22.814Z,7.93
2023-01-13T08:08:25.529Z,6.57
2023-01-13T08:11:28.774Z,10.32
2023-01-13T08:14:31.615Z,8.98
2023-01-13T08:17:34.652Z,8.13
2023-01-13T08:20:39.188Z,10.10
2023-01-13T08:23:44.050Z,9.27
2023-01-13T08:26:46.673Z,11.80
2023-01-13T08:29:49.666Z,16.52
2023-01-13T16:44:42.040Z,98.05
2023-01-13T16:47:45.418Z,60.75
2023-01-13T16:50:49.337Z,34.08
2023-01-13T16:53:53.010Z,27.98
2023-01-13T16:56:55.697Z,24.80
2023-01-13T16:59:58.748Z,26.98
2023-01-13T17:03:02.846Z,28.77
2023-01-13T17:06:06.151Z,23.75
2023-01-13T17:09:20.214Z,28.77
2023-01-13T17:12:23.377Z,22.35
2023-01-13T17:15:26.175Z,26.65
2023-01-13T17:18:29.240Z,26.85
2023-01-13T17:21:32.245Z,23.30
2023-01-13T17:24:37.663Z,25.85
2023-01-13T17:27:42.124Z,35.70
2023-01-13T17:30:46.111Z,24.95
2023-01-13T17:33:48.909Z,23.60
2023-01-13T17:36:54.639Z,23.12
2023-01-13T17:39:57.611Z,23.60
2023-01-13T17:43:00.735Z,25.65
2023-01-13T17:46:08.840Z,32.25
2023-01-13T17:49:17.926Z,41.97
2023-01-13T17:52:20.697Z,39.13
2023-01-13T17:55:23.701Z,31.92
2023-01-13T17:58:26.448Z,33.03
2023-01-13T18:01:33.008Z,32.45
2023-01-13T18:04:36.275Z,34.25
2023-01-13T18:07:39.073Z,31.75
2023-01-13T18:10:42.574Z,32.75
2023-01-13T18:13:55.271Z,26.10
2023-01-13T18:16:58.412Z,27.23
2023-01-13T18:20:19.755Z,28.48
2023-01-13T18:23:42.286Z,29.35
2023-01-13T18:27:06.963Z,45.35
2023-01-13T18:30:12.077Z,40.92
2023-01-13T18:33:15.012Z,34.60
2023-01-13T18:36:18.376Z,31.87
2023-01-13T18:39:21.368Z,32.90
2023-01-13T18:42:43.134Z,31.95
2023-01-13T18:45:50.677Z,37.20
2023-01-13T18:48:53.793Z,36.90
2023-01-13T18:51:56.529Z,31.35
2023-01-13T18:54:59.569Z,43.92
2023-01-13T18:58:02.458Z,42.72
2023-01-13T19:01:06.429Z,58.95
2023-01-13T19:04:15.811Z,46.03
2023-01-13T19:07:24.044Z,45.35
2023-01-13T19:10:31.961Z,29.40
2023-01-13T19:13:36.008Z,34.25
2023-01-13T19:16:39.092Z,23.60
2023-01-13T19:19:44.413Z,28.15
2023-01-13T19:22:53.988Z,23.05
2023-01-13T19:26:09.264Z,28.90
2023-01-13T19:29:12.272Z,33.05
2023-01-13T19:32:16.607Z,30.45
2023-01-13T19:35:20.171Z,31.73
2023-01-13T19:38:25.401Z,38.40
2023-01-13T19:41:46.911Z,43.65
2023-01-13T19:45:09.455Z,43.33
2023-01-13T19:48:16.110Z,42.47
2023-01-13T19:51:19.228Z,44.47
2023-01-13T19:54:22.477Z,43.60
2023-01-13T19:57:26.145Z,41.20
2023-01-13T20:00:30.996Z,39.88
2023-01-13T20:03:37.637Z,42.45
2023-01-13T20:06:41.487Z,39.90
2023-01-13T20:09:47.180Z,54.08
2023-01-13T20:12:50.685Z,50.83
2023-01-13T20:15:53.808Z,39.05
2023-01-13T20:18:56.919Z,32.40
2023-01-13T20:22:00.311Z,32.78
2023-01-13T20:25:04.220Z,30.10
2023-01-13T20:28:07.735Z,30.90
2023-01-13T20:31:12.949Z,31.30
2023-01-13T20:34:19.878Z,40.33
2023-01-13T20:37:22.997Z,34.85
2023-01-13T20:40:26.693Z,42.90
2023-01-13T20:43:29.413Z,36.05
2023-01-13T20:46:32.786Z,30.55
2023-01-13T20:49:38.396Z,35.70
2023-01-13T20:52:42.308Z,35.10
2023-01-13T20:55:45.767Z,32.25
2023-01-13T20:59:09.528Z,34.42
2023-01-13T21:05:58.498Z,36.42
2023-01-13T21:09:01.930Z,32.80
2023-01-13T21:12:24.011Z,33.83
2023-01-13T21:15:49.269Z,29.42
2023-01-13T21:19:07.858Z,18.87
2023-01-13T21:22:11.333Z,25.50
2023-01-13T21:36:40.631Z,30.52
2023-01-13T21:40:12.236Z,34.28
2023-01-13T21:43:36.510Z,28.85
2023-01-13T21:55:05.727Z,32.85
2023-01-13T21:58:14.507Z,36.15
2023-01-13T22:02:24.691Z,36.35
2023-01-13T22:05:29.549Z,31.45
2023-01-13T22:08:55.857Z,32.88
2023-01-13T22:12:22.702Z,34.42
2023-01-13T22:15:28.909Z,36.55
2023-01-13T22:18:32.708Z,31.37
2023-01-13T22:21:57.301Z,30.70
2023-01-13T22:25:00.133Z,27.35
2023-01-13T22:28:25.311Z,32.42
2023-01-13T22:31:47.955Z,36.42
2023-01-13T22:34:52.752Z,34.65
2023-01-13T22:38:15.998Z,27.95
2023-01-13T22:42:10.494Z,35.22
2023-01-13T22:45:34.683Z,37.53
2023-01-13T22:49:33.884Z,28.08
2023-01-13T22:53:16.587Z,27.75
2023-01-13T22:56:59.658Z,40.47
2023-01-13T23:00:42.334Z,43.22
2023-01-13T23:04:05.785Z,38.53
2023-01-13T23:07:29.576Z,38.42
2023-01-13T23:11:19.959Z,30.90
2023-01-13T23:14:54.815Z,29.35
2023-01-13T23:18:28.492Z,34.38
2023-01-13T23:22:31.455Z,38.65
2023-01-13T23:26:14.762Z,38.42
2023-01-13T23:29:40.707Z,32.38
2023-01-13T23:33:15.080Z,33.55
2023-01-13T23:36:40.887Z,36.75
2023-01-13T23:40:04.183Z,35.03
2023-01-13T23:43:10.603Z,32.88
2023-01-13T23:46:47.701Z,34.53
2023-01-13T23:50:29.120Z,31.55
2023-01-13T23:54:02.575Z,36.42
2023-01-13T23:57:10.723Z,34.92
